TimeEST,TemperatureF,Dew PointF,Humidity,Sea Level PressureIn,VisibilityMPH,Wind Direction,Wind SpeedMPH,Gust SpeedMPH,PrecipitationIn,Events,Conditions,WindDirDegrees,DateUTC
12:56 AM,34.0,27.0,75,30.03,10.0,Calm,Calm,-,N/A,,Clear,0,2013-02-04 05:56:00
1:56 AM,30.0,26.1,85,30.04,10.0,Calm,Calm,-,N/A,,Clear,0,2013-02-04 06:56:00
2:56 AM,28.9,25.0,85,30.05,10.0,Calm,Calm,-,N/A,,Clear,0,2013-02-04 07:56:00
3:56 AM,28.0,24.1,85,30.07,10.0,Calm,Calm,-,N/A,,Clear,0,2013-02-04 08:56:00
5:56 AM,27.0,23.0,85,30.11,10.0,Calm,Calm,-,N/A,,Clear,0,2013-02-04 10:56:00
6:56 AM,26.1,21.9,84,30.13,10.0,Calm,Calm,-,N/A,,Clear,0,2013-02-04 11:56:00
7:56 AM,28.9,25.0,85,30.14,10.0,Calm,Calm,-,N/A,,Scattered Clouds,0,2013-02-04 12:56:00
8:56 AM,37.9,24.1,57,30.16,10.0,North,5.8,-,N/A,,Clear,10,2013-02-04 13:56:00
9:56 AM,39.9,19.9,45,30.18,10.0,NE,5.8,-,N/A,,Mostly Cloudy,40,2013-02-04 14:56:00
10:56 AM,42.1,19.0,40,30.18,10.0,NW,5.8,-,N/A,,Mostly Cloudy,320,2013-02-04 15:56:00
11:56 AM,45.0,19.9,37,30.17,10.0,North,6.9,-,N/A,,Clear,360,2013-02-04 16:56:00
12:56 PM,46.9,19.9,34,30.14,10.0,Variable,4.6,-,N/A,,Clear,0,2013-02-04 17:56:00
1:56 PM,48.0,19.9,33,30.12,10.0,NW,5.8,-,N/A,,Mostly Cloudy,320,2013-02-04 18:56:00
2:56 PM,48.9,19.9,32,30.11,10.0,Calm,Calm,-,N/A,,Mostly Cloudy,0,2013-02-04 19:56:00
3:56 PM,46.9,26.1,44,30.09,10.0,South,5.8,-,N/A,,Scattered Clouds,170,2013-02-04 20:56:00
4:56 PM,45.0,26.1,48,30.10,10.0,South,6.9,-,N/A,,Overcast,180,2013-02-04 21:56:00
5:56 PM,43.0,28.0,56,30.11,10.0,South,5.8,-,N/A,,Overcast,190,2013-02-04 22:56:00
6:56 PM,42.1,28.0,58,30.11,10.0,South,4.6,-,N/A,,Mostly Cloudy,180,2013-02-04 23:56:00
7:56 PM,42.1,28.9,60,30.11,10.0,Calm,Calm,-,N/A,,Clear,0,2013-02-05 00:56:00
8:56 PM,41.0,28.9,62,30.10,10.0,Calm,Calm,-,N/A,,Scattered Clouds,0,2013-02-05 01:56:00
9:56 PM,39.0,30.9,73,30.09,10.0,Calm,Calm,-,N/A,,Clear,0,2013-02-05 02:56:00
10:56 PM,37.0,30.0,76,30.08,10.0,Calm,Calm,-,N/A,,Clear,0,2013-02-05 03:56:00
11:56 PM,37.9,32.0,79,30.08,10.0,WSW,3.5,-,N/A,,Clear,250,2013-02-05 04:56:00